createdAt,value
2019-05-25T00:01:12.881Z,13.01
2019-05-25T00:03:46.449Z,12.97
2019-05-25T00:06:20.648Z,12.94
2019-05-25T00:08:55.039Z,12.94
2019-05-25T00:11:27.066Z,12.94
2019-05-25T00:13:58.871Z,12.96
2019-05-25T00:16:33.820Z,12.98
2019-05-25T00:19:06.999Z,12.99
2019-05-25T00:21:40.738Z,13.02
2019-05-25T00:24:13.980Z,13.03
2019-05-25T00:26:46.832Z,13.07
2019-05-25T00:29:18.171Z,13.07
2019-05-25T00:31:52.630Z,13.09
2019-05-25T00:34:24.249Z,13.11
2019-05-25T00:36:57.087Z,13.11
2019-05-25T00:39:29.100Z,13.13
2019-05-25T00:42:03.135Z,13.14
2019-05-25T00:44:36.024Z,13.17
2019-05-25T00:47:07.488Z,13.20
2019-05-25T00:49:39.150Z,13.21
2019-05-25T00:52:13.815Z,13.22
2019-05-25T00:54:48.099Z,13.23
2019-05-25T00:57:21.352Z,13.24
2019-05-25T00:59:53.031Z,13.26
2019-05-25T01:02:27.312Z,13.25
2019-05-25T01:05:00.913Z,13.27
2019-05-25T01:07:33.352Z,13.28
2019-05-25T01:10:06.398Z,13.28
2019-05-25T01:12:40.193Z,13.29
2019-05-25T01:15:16.433Z,13.29
2019-05-25T01:17:49.293Z,13.28
2019-05-25T01:20:23.045Z,13.30
2019-05-25T01:22:57.292Z,13.29
2019-05-25T01:25:30.353Z,13.28
2019-05-25T01:28:03.337Z,13.26
2019-05-25T01:30:35.561Z,13.25
2019-05-25T01:33:10.585Z,13.21
2019-05-25T01:35:45.898Z,13.22
2019-05-25T01:38:19.071Z,13.21
2019-05-25T01:40:51.575Z,13.20
2019-05-25T01:43:26.036Z,13.19
2019-05-25T01:45:58.500Z,13.18
2019-05-25T01:48:31.996Z,13.18
2019-05-25T01:51:05.525Z,13.17
2019-05-25T01:53:38.413Z,13.16
2019-05-25T01:56:11.608Z,13.14
2019-05-25T01:58:44.504Z,13.14
2019-05-25T02:01:17.483Z,13.14
2019-05-25T02:03:50.570Z,13.15
2019-05-25T02:06:25.171Z,13.15
2019-05-25T02:08:56.820Z,13.15
2019-05-25T02:11:29.524Z,13.15
2019-05-25T02:14:02.557Z,13.14
2019-05-25T02:16:35.445Z,13.14
2019-05-25T02:19:08.636Z,13.12
2019-05-25T02:21:41.643Z,13.12
2019-05-25T02:24:15.650Z,13.11
2019-05-25T02:26:48.923Z,13.11
2019-05-25T02:29:23.962Z,13.10
2019-05-25T02:31:56.535Z,13.10
2019-05-25T02:34:27.886Z,13.10
2019-05-25T02:36:59.534Z,13.12
2019-05-25T02:39:35.128Z,13.12
2019-05-25T02:42:07.792Z,13.12
2019-05-25T02:44:41.580Z,13.13
2019-05-25T02:47:15.051Z,13.13
2019-05-25T02:49:49.409Z,13.13
2019-05-25T02:52:20.707Z,13.13
2019-05-25T02:54:52.642Z,13.11
2019-05-25T02:57:28.131Z,13.11
2019-05-25T03:00:01.836Z,13.13
2019-05-25T03:02:33.695Z,13.13
2019-05-25T03:05:09.869Z,13.14
2019-05-25T03:07:43.847Z,13.13
2019-05-25T03:10:17.008Z,13.13
2019-05-25T03:12:50.826Z,13.14
2019-05-25T03:15:23.813Z,13.14
2019-05-25T03:17:59.494Z,13.13
2019-05-25T03:20:32.565Z,13.12
2019-05-25T03:23:07.800Z,13.13
2019-05-25T03:25:49.523Z,13.13
2019-05-25T03:28:18.339Z,13.13
2019-05-25T03:30:51.876Z,13.14
2019-05-25T03:33:23.770Z,13.11
2019-05-25T03:35:56.836Z,13.07
2019-05-25T03:38:30.134Z,13.02
2019-05-25T03:41:04.720Z,13.01
2019-05-25T03:43:38.977Z,12.97
2019-05-25T03:46:11.977Z,12.95
2019-05-25T03:48:44.891Z,12.95
2019-05-25T03:51:17.681Z,12.94
2019-05-25T03:53:51.044Z,12.90
2019-05-25T03:56:23.963Z,12.86
2019-05-25T03:58:57.050Z,12.89
2019-05-25T04:01:30.926Z,12.93
2019-05-25T04:04:02.955Z,12.95
2019-05-25T04:06:38.651Z,12.99
2019-05-25T04:09:12.115Z,13.06
2019-05-25T04:11:46.223Z,13.16
2019-05-25T04:14:17.807Z,13.24
2019-05-25T04:16:52.051Z,13.32
2019-05-25T04:19:24.146Z,13.41
2019-05-25T04:21:59.780Z,13.46
2019-05-25T04:24:31.256Z,13.48
2019-05-25T04:27:05.153Z,13.56
2019-05-25T04:29:38.162Z,13.63
2019-05-25T04:32:10.313Z,13.72
2019-05-25T04:34:44.156Z,13.83
2019-05-25T04:37:17.795Z,13.89
2019-05-25T04:39:50.238Z,13.95
2019-05-25T04:42:24.067Z,14.00
2019-05-25T04:44:58.278Z,14.06
2019-05-25T04:47:30.221Z,14.08
2019-05-25T04:50:02.088Z,14.13
2019-05-25T04:52:41.178Z,14.17
2019-05-25T04:55:11.326Z,14.18
2019-05-25T04:57:45.257Z,14.25
2019-05-25T05:00:20.277Z,14.33
2019-05-25T05:02:53.270Z,14.41
2019-05-25T05:05:27.291Z,14.48
2019-05-25T05:08:00.275Z,14.61
2019-05-25T05:10:33.458Z,14.71
2019-05-25T05:13:10.747Z,14.78
2019-05-25T05:15:43.000Z,14.83
2019-05-25T05:18:16.738Z,14.88
2019-05-25T05:20:48.343Z,14.91
2019-05-25T05:23:21.338Z,14.92
2019-05-25T05:25:55.312Z,14.97
2019-05-25T05:28:27.308Z,15.02
2019-05-25T05:31:02.991Z,15.04
2019-05-25T05:33:36.456Z,15.02
2019-05-25T05:36:10.264Z,15.05
2019-05-25T05:38:46.636Z,15.16
2019-05-25T05:41:20.032Z,15.24
2019-05-25T05:43:57.242Z,15.38
2019-05-25T05:46:31.921Z,15.43
2019-05-25T05:49:03.872Z,15.44
2019-05-25T05:51:36.705Z,15.52
2019-05-25T05:54:09.595Z,15.58
2019-05-25T05:56:41.444Z,15.62
2019-05-25T05:59:16.769Z,15.70
2019-05-25T06:01:50.476Z,15.85
2019-05-25T06:04:24.091Z,16.00
2019-05-25T06:06:55.530Z,16.21
2019-05-25T06:09:29.972Z,16.42
2019-05-25T06:12:01.711Z,16.67
2019-05-25T06:14:33.657Z,16.82
2019-05-25T06:17:08.369Z,16.96
2019-05-25T06:19:41.745Z,17.12
2019-05-25T06:22:15.331Z,17.34
2019-05-25T06:24:48.743Z,17.45
2019-05-25T06:27:27.436Z,17.47
2019-05-25T06:29:56.640Z,17.42
2019-05-25T06:32:30.707Z,17.51
2019-05-25T06:35:05.254Z,17.59
2019-05-25T06:37:39.553Z,17.71
2019-05-25T06:40:17.181Z,17.76
2019-05-25T06:42:48.722Z,17.85
2019-05-25T06:45:21.693Z,18.20
2019-05-25T06:47:56.992Z,18.54
2019-05-25T06:50:31.687Z,18.86
2019-05-25T06:53:03.823Z,19.06
2019-05-25T06:55:37.089Z,19.30
2019-05-25T06:58:09.808Z,19.39
2019-05-25T07:00:42.785Z,19.29
2019-05-25T07:03:18.610Z,19.20
2019-05-25T07:05:51.875Z,18.86
2019-05-25T07:08:24.816Z,18.73
2019-05-25T07:10:59.701Z,18.74
2019-05-25T07:13:31.783Z,18.77
2019-05-25T07:16:04.734Z,18.75
2019-05-25T07:18:41.371Z,18.80
2019-05-25T07:21:12.821Z,18.75
2019-05-25T07:23:45.466Z,19.00
2019-05-25T07:26:17.993Z,19.02
2019-05-25T07:28:50.878Z,19.07
2019-05-25T07:31:23.957Z,19.15
2019-05-25T07:33:57.020Z,19.27
2019-05-25T07:36:30.948Z,19.25
2019-05-25T07:39:06.623Z,19.24
2019-05-25T07:41:39.088Z,19.21
2019-05-25T07:44:14.931Z,19.25
2019-05-25T07:46:47.922Z,19.41
2019-05-25T07:49:21.553Z,19.63
2019-05-25T07:51:55.183Z,19.87
2019-05-25T07:54:28.414Z,20.00
2019-05-25T07:57:01.374Z,20.05
2019-05-25T07:59:35.248Z,20.14
2019-05-25T08:02:08.152Z,20.25
2019-05-25T08:04:40.337Z,20.36
2019-05-25T08:07:13.098Z,20.47
2019-05-25T08:09:44.993Z,20.62
2019-05-25T08:12:18.170Z,20.64
2019-05-25T08:14:50.195Z,20.69
2019-05-25T08:17:24.177Z,20.69
2019-05-25T08:19:59.747Z,20.80
2019-05-25T08:22:33.210Z,20.89
2019-05-25T08:25:06.317Z,20.85
2019-05-25T08:27:39.234Z,20.95
2019-05-25T08:30:12.502Z,21.16
2019-05-25T08:32:47.873Z,21.31
2019-05-25T08:35:21.527Z,21.25
2019-05-25T08:37:55.309Z,21.29
2019-05-25T08:40:29.790Z,21.28
2019-05-25T08:43:02.384Z,21.40
2019-05-25T08:45:38.070Z,21.54
2019-05-25T08:48:09.395Z,21.67
2019-05-25T08:50:43.473Z,21.71
2019-05-25T08:53:15.379Z,21.84
2019-05-25T08:55:48.394Z,21.95
2019-05-25T08:58:23.571Z,21.93
2019-05-25T09:00:57.385Z,22.01
2019-05-25T09:03:30.475Z,22.32
2019-05-25T09:06:03.423Z,22.49
2019-05-25T09:08:39.844Z,22.74
2019-05-25T09:11:12.664Z,22.92
2019-05-25T09:13:47.096Z,22.98
2019-05-25T09:16:18.432Z,22.91
2019-05-25T09:18:53.349Z,22.94
2019-05-25T09:21:28.459Z,22.94
2019-05-25T09:24:00.764Z,22.87
2019-05-25T09:26:33.549Z,23.02
2019-05-25T09:29:05.653Z,23.13
2019-05-25T09:31:37.749Z,23.25
2019-05-25T09:34:10.197Z,23.51
2019-05-25T09:36:42.433Z,23.73
2019-05-25T09:39:16.550Z,23.95
2019-05-25T09:41:52.351Z,24.00
2019-05-25T09:44:24.566Z,24.29
2019-05-25T09:46:58.893Z,24.39
2019-05-25T09:49:36.869Z,24.54
2019-05-25T09:52:09.646Z,24.56
2019-05-25T09:54:41.542Z,24.59
2019-05-25T09:57:16.788Z,24.57
2019-05-25T09:59:50.779Z,24.82
2019-05-25T10:02:24.538Z,24.81
2019-05-25T10:04:56.732Z,24.68
2019-05-25T10:07:32.088Z,24.79
2019-05-25T10:10:08.205Z,24.73
2019-05-25T10:12:39.638Z,24.86
2019-05-25T10:15:12.971Z,24.89
2019-05-25T10:17:45.821Z,24.96
2019-05-25T10:20:18.091Z,25.18
2019-05-25T10:22:51.981Z,25.29
2019-05-25T10:25:24.891Z,25.60
2019-05-25T10:27:59.625Z,25.72
2019-05-25T10:30:35.315Z,25.78
2019-05-25T10:33:06.990Z,25.49
2019-05-25T10:35:38.939Z,25.49
2019-05-25T10:38:11.813Z,25.65
2019-05-25T10:40:45.909Z,25.75
2019-05-25T10:43:18.342Z,25.89
2019-05-25T10:45:51.905Z,26.05
2019-05-25T10:48:24.958Z,25.92
2019-05-25T10:50:58.328Z,25.75
2019-05-25T10:53:31.009Z,25.83
2019-05-25T10:56:04.098Z,26.03
2019-05-25T10:58:37.885Z,25.79
2019-05-25T11:01:10.773Z,25.96
2019-05-25T11:03:46.777Z,25.99
2019-05-25T11:06:22.267Z,26.08
2019-05-25T11:08:56.148Z,26.19
2019-05-25T11:11:28.080Z,26.32
2019-05-25T11:14:00.867Z,26.20
2019-05-25T11:16:34.097Z,26.24
2019-05-25T11:19:07.396Z,26.21
2019-05-25T11:21:40.073Z,26.10
2019-05-25T11:24:13.933Z,26.12
2019-05-25T11:26:46.108Z,26.01
2019-05-25T11:29:18.345Z,26.31
2019-05-25T11:31:58.612Z,26.41
2019-05-25T11:34:28.787Z,26.43
2019-05-25T11:37:01.278Z,26.50
2019-05-25T11:39:33.583Z,26.64
2019-05-25T11:42:07.391Z,26.66
2019-05-25T11:44:40.418Z,26.69
2019-05-25T11:47:13.306Z,26.64
2019-05-25T11:49:45.369Z,26.47
2019-05-25T11:52:19.006Z,26.66
2019-05-25T11:54:54.181Z,26.70
2019-05-25T11:57:25.470Z,26.45
2019-05-25T11:59:58.401Z,26.75
2019-05-25T12:02:33.391Z,26.91
2019-05-25T12:05:08.930Z,26.91
2019-05-25T12:07:43.967Z,26.86
2019-05-25T12:10:29.074Z,26.97
2019-05-25T12:13:01.313Z,26.87
2019-05-25T12:15:36.808Z,27.10
2019-05-25T12:18:09.639Z,26.88
2019-05-25T12:20:42.282Z,27.04
2019-05-25T12:23:15.541Z,27.14
2019-05-25T12:25:49.572Z,27.13
2019-05-25T12:28:22.975Z,26.90
2019-05-25T12:30:56.537Z,26.73
2019-05-25T12:33:31.980Z,26.99
2019-05-25T12:36:03.705Z,27.18
2019-05-25T12:38:39.128Z,26.97
2019-05-25T12:41:17.447Z,27.08
2019-05-25T12:43:49.544Z,27.21
2019-05-25T12:46:23.187Z,27.26
2019-05-25T12:48:54.583Z,27.12
2019-05-25T12:51:27.697Z,27.26
2019-05-25T12:54:00.662Z,27.15
2019-05-25T12:56:33.499Z,26.91
2019-05-25T12:59:07.995Z,26.57
2019-05-25T13:01:40.737Z,26.38
2019-05-25T13:04:16.495Z,26.17
2019-05-25T13:06:48.831Z,26.14
2019-05-25T13:09:21.707Z,26.26
2019-05-25T13:11:53.546Z,26.74
2019-05-25T13:14:24.898Z,26.60
2019-05-25T13:16:58.568Z,26.99
2019-05-25T13:19:35.867Z,27.07
2019-05-25T13:22:09.811Z,27.06
2019-05-25T13:24:44.244Z,27.24
2019-05-25T13:27:16.918Z,27.37
2019-05-25T13:29:50.903Z,27.16
2019-05-25T13:32:24.794Z,27.18
2019-05-25T13:34:57.745Z,27.37
2019-05-25T13:37:30.682Z,27.40
2019-05-25T13:40:03.975Z,27.54
2019-05-25T13:42:37.518Z,27.31
2019-05-25T13:45:10.957Z,27.25
2019-05-25T13:47:44.766Z,27.12
2019-05-25T13:50:18.466Z,27.03
2019-05-25T13:52:52.223Z,26.93
2019-05-25T13:55:24.670Z,27.03
2019-05-25T13:57:57.835Z,27.18
2019-05-25T14:00:30.965Z,27.25
2019-05-25T14:03:02.749Z,27.43
2019-05-25T14:05:38.307Z,27.31
2019-05-25T14:08:09.808Z,26.93
2019-05-25T14:10:41.865Z,26.92
2019-05-25T14:13:18.454Z,26.98
2019-05-25T14:15:49.973Z,27.07
2019-05-25T14:18:26.603Z,26.98
2019-05-25T14:21:07.208Z,26.56
2019-05-25T14:23:39.916Z,26.17
2019-05-25T14:26:13.069Z,26.18
2019-05-25T14:28:45.896Z,26.33
2019-05-25T14:31:18.807Z,26.11
2019-05-25T14:33:53.678Z,25.28
2019-05-25T14:36:24.994Z,25.62
2019-05-25T14:38:59.304Z,25.82
2019-05-25T14:41:31.266Z,25.82
2019-05-25T14:44:04.049Z,25.52
2019-05-25T14:46:36.983Z,25.44
2019-05-25T14:49:11.942Z,25.48
2019-05-25T14:51:50.980Z,25.44
2019-05-25T14:54:24.915Z,25.48
2019-05-25T14:57:03.580Z,25.73
2019-05-25T14:59:38.222Z,25.58
2019-05-25T15:02:12.135Z,25.57
2019-05-25T15:04:45.195Z,25.54
2019-05-25T15:07:18.136Z,25.30
2019-05-25T15:09:51.010Z,25.25
2019-05-25T15:12:23.709Z,25.29
2019-05-25T15:14:56.747Z,25.29
2019-05-25T15:17:29.170Z,25.24
2019-05-25T15:20:02.194Z,25.29
2019-05-25T15:22:35.985Z,25.17
2019-05-25T15:25:09.384Z,25.17
2019-05-25T15:27:43.157Z,25.18
2019-05-25T15:30:17.104Z,25.21
2019-05-25T15:32:49.113Z,25.16
2019-05-25T15:35:22.084Z,25.19
2019-05-25T15:37:56.429Z,25.15
2019-05-25T15:40:28.462Z,25.31
2019-05-25T15:43:01.378Z,25.26
2019-05-25T15:45:37.131Z,25.44
2019-05-25T15:48:10.253Z,25.43
2019-05-25T15:50:41.638Z,25.45
2019-05-25T15:53:13.223Z,25.14
2019-05-25T15:55:47.346Z,25.27
2019-05-25T15:58:18.898Z,25.17
2019-05-25T16:00:52.670Z,25.18
2019-05-25T16:03:25.253Z,25.14
2019-05-25T16:06:01.518Z,24.93
2019-05-25T16:08:36.134Z,24.79
2019-05-25T16:11:12.003Z,24.74
2019-05-25T16:13:45.265Z,24.48
2019-05-25T16:16:19.150Z,24.31
2019-05-25T16:18:52.576Z,24.13
2019-05-25T16:21:25.520Z,23.86
2019-05-25T16:23:58.376Z,23.78
2019-05-25T16:26:44.879Z,23.75
2019-05-25T16:29:08.234Z,23.72
2019-05-25T16:31:41.521Z,23.66
2019-05-25T16:34:13.634Z,23.61
2019-05-25T16:36:48.209Z,23.54
2019-05-25T16:39:27.362Z,23.58
2019-05-25T16:42:05.315Z,23.58
2019-05-25T16:44:39.268Z,23.52
2019-05-25T16:47:10.646Z,23.51
2019-05-25T16:49:42.904Z,23.50
2019-05-25T16:52:15.560Z,23.46
2019-05-25T16:54:51.176Z,23.57
2019-05-25T16:57:22.589Z,23.44
2019-05-25T16:59:56.149Z,23.30
2019-05-25T17:02:29.345Z,23.32
2019-05-25T17:05:01.754Z,23.25
2019-05-25T17:07:36.689Z,23.12
2019-05-25T17:10:08.716Z,23.10
2019-05-25T17:12:42.343Z,23.08
2019-05-25T17:15:17.404Z,23.03
2019-05-25T17:17:51.636Z,22.97
2019-05-25T17:20:26.487Z,22.92
2019-05-25T17:22:58.080Z,22.95
2019-05-25T17:25:36.453Z,22.92
2019-05-25T17:28:12.934Z,22.92
2019-05-25T17:30:48.036Z,22.88
2019-05-25T17:33:20.081Z,22.88
2019-05-25T17:35:54.911Z,22.82
2019-05-25T17:38:29.557Z,22.89
2019-05-25T17:41:03.793Z,22.78
2019-05-25T17:43:38.045Z,22.67
2019-05-25T17:46:13.238Z,22.67
2019-05-25T17:48:46.449Z,22.56
2019-05-25T17:51:18.796Z,22.45
2019-05-25T17:53:52.981Z,22.39
2019-05-25T17:56:26.812Z,22.35
2019-05-25T17:59:00.422Z,22.30
2019-05-25T18:01:33.562Z,22.22
2019-05-25T18:04:09.611Z,22.18
2019-05-25T18:06:43.013Z,22.14
2019-05-25T18:09:15.000Z,22.13
2019-05-25T18:11:50.623Z,22.10
2019-05-25T18:14:27.919Z,22.01
2019-05-25T18:17:02.535Z,21.92
2019-05-25T18:19:38.664Z,21.83
2019-05-25T18:22:15.395Z,21.77
2019-05-25T18:24:48.048Z,21.65
2019-05-25T18:27:20.413Z,21.56
2019-05-25T18:29:52.230Z,21.49
2019-05-25T18:32:25.251Z,21.45
2019-05-25T18:34:57.221Z,21.39
2019-05-25T18:37:34.265Z,21.36
2019-05-25T18:40:09.021Z,21.32
2019-05-25T18:42:42.164Z,21.25
2019-05-25T18:45:18.119Z,21.18
2019-05-25T18:47:55.321Z,21.05
2019-05-25T18:50:28.599Z,21.03
2019-05-25T18:53:01.198Z,20.91
2019-05-25T18:55:36.531Z,20.82
2019-05-25T18:58:09.282Z,20.75
2019-05-25T19:00:43.168Z,20.68
2019-05-25T19:03:16.481Z,20.61
2019-05-25T19:05:49.342Z,20.58
2019-05-25T19:08:23.981Z,20.55
2019-05-25T19:11:00.445Z,20.51
2019-05-25T19:13:36.566Z,20.49
2019-05-25T19:16:11.582Z,20.46
2019-05-25T19:18:43.374Z,20.44
2019-05-25T19:21:18.053Z,20.45
2019-05-25T19:23:55.183Z,20.73
2019-05-25T19:26:32.565Z,20.70
2019-05-25T19:29:05.665Z,20.63
2019-05-25T19:31:38.294Z,20.51
2019-05-25T19:34:12.188Z,20.44
2019-05-25T19:36:48.043Z,20.38
2019-05-25T19:39:35.000Z,20.25
2019-05-25T19:42:10.842Z,20.10
2019-05-25T19:44:42.435Z,20.03
2019-05-25T19:47:16.490Z,19.89
2019-05-25T19:49:54.767Z,19.79
2019-05-25T19:52:31.848Z,19.61
2019-05-25T19:55:05.934Z,19.49
2019-05-25T19:57:38.553Z,19.38
2019-05-25T20:00:14.646Z,19.28
2019-05-25T20:02:50.055Z,19.31
2019-05-25T20:05:24.040Z,19.22
2019-05-25T20:07:55.601Z,19.15
2019-05-25T20:10:28.607Z,19.04
2019-05-25T20:13:04.582Z,19.01
2019-05-25T20:15:43.634Z,18.96
2019-05-25T20:18:16.768Z,18.93
2019-05-25T20:20:52.924Z,18.87
2019-05-25T20:23:25.767Z,18.87
2019-05-25T20:26:02.781Z,18.80
2019-05-25T20:28:37.401Z,18.68
2019-05-25T20:31:12.565Z,18.59
2019-05-25T20:33:44.828Z,18.49
2019-05-25T20:36:17.922Z,18.43
2019-05-25T20:38:50.696Z,18.43
2019-05-25T20:41:23.671Z,18.59
2019-05-25T20:43:56.662Z,18.53
2019-05-25T20:46:30.772Z,18.47
2019-05-25T20:49:05.553Z,18.47
2019-05-25T20:51:39.746Z,18.46
2019-05-25T20:54:15.773Z,18.44
2019-05-25T20:56:50.302Z,18.44
2019-05-25T20:59:27.442Z,18.44
2019-05-25T21:02:00.127Z,18.41
2019-05-25T21:04:35.046Z,18.38
2019-05-25T21:07:07.737Z,18.46
2019-05-25T21:09:51.731Z,18.37
2019-05-25T21:12:28.014Z,18.33
2019-05-25T21:15:03.965Z,18.32
2019-05-25T21:17:40.019Z,18.26
2019-05-25T21:20:16.318Z,18.22
2019-05-25T21:22:50.084Z,18.16
2019-05-25T21:25:23.849Z,18.10
2019-05-25T21:27:56.033Z,18.08
2019-05-25T21:30:29.021Z,18.04
2019-05-25T21:33:02.531Z,17.98
2019-05-25T21:35:35.430Z,17.93
2019-05-25T21:38:08.024Z,17.87
2019-05-25T21:40:40.445Z,17.82
2019-05-25T21:43:12.699Z,17.75
2019-05-25T21:45:47.210Z,17.70
2019-05-25T21:48:19.416Z,17.65
2019-05-25T21:50:51.036Z,17.61
2019-05-25T21:53:24.194Z,17.56
2019-05-25T21:55:56.079Z,17.52
2019-05-25T21:58:29.164Z,17.50
2019-05-25T22:01:02.315Z,17.50
2019-05-25T22:03:36.260Z,17.47
2019-05-25T22:06:23.764Z,17.45
2019-05-25T22:08:50.063Z,17.43
2019-05-25T22:11:23.314Z,17.43
2019-05-25T22:13:56.875Z,17.40
2019-05-25T22:16:30.806Z,17.38
2019-05-25T22:19:03.213Z,17.37
2019-05-25T22:21:36.479Z,17.33
2019-05-25T22:24:10.133Z,17.30
2019-05-25T22:26:44.187Z,17.26
2019-05-25T22:29:18.427Z,17.22
2019-05-25T22:31:50.277Z,17.17
2019-05-25T22:34:24.950Z,17.12
2019-05-25T22:36:57.934Z,17.06
2019-05-25T22:39:31.416Z,17.00
2019-05-25T22:42:05.874Z,16.93
2019-05-25T22:44:44.274Z,16.87
2019-05-25T22:47:18.518Z,16.83
2019-05-25T22:49:52.390Z,16.78
2019-05-25T22:52:29.008Z,16.74
2019-05-25T22:55:01.505Z,16.69
2019-05-25T22:57:36.057Z,16.67
2019-05-25T23:00:25.456Z,16.63
2019-05-25T23:02:59.193Z,16.57
2019-05-25T23:05:33.856Z,16.54
2019-05-25T23:08:12.755Z,16.52
2019-05-25T23:10:49.619Z,16.46
2019-05-25T23:13:22.318Z,16.43
2019-05-25T23:15:57.016Z,16.39
2019-05-25T23:18:33.023Z,16.36
2019-05-25T23:21:04.334Z,16.35
2019-05-25T23:23:37.594Z,16.32
2019-05-25T23:26:10.424Z,16.32
2019-05-25T23:28:43.497Z,16.29
2019-05-25T23:31:16.869Z,16.24
2019-05-25T23:33:48.496Z,16.23
2019-05-25T23:36:20.129Z,16.24
2019-05-25T23:38:53.902Z,16.24
2019-05-25T23:41:25.447Z,16.23
2019-05-25T23:43:59.955Z,16.25
2019-05-25T23:46:33.094Z,16.26
2019-05-25T23:49:05.678Z,16.27
2019-05-25T23:51:39.544Z,16.28
2019-05-25T23:54:11.615Z,16.29
2019-05-25T23:56:43.769Z,16.29
2019-05-25T23:59:16.586Z,16.29
